Time;durP1;ratioP1;P1;durP2;ratioP2;P2;SDS_P1;SDS_P2;PMS_P1;PMS_P2;Temp;Humidity;BMP_temperature;BMP_pressure;BME280_temperature;BME280_humidity;BME280_pressure;Samples;Min_cycle;Max_cycle;Signal;HPM_P1;HPM_P2
2023/04/12 00:00:03;;;;;;;4.72;1.75;;;12.40;99.90;;;;;;5055195;28;20033;-44
2023/04/12 00:02:29;;;;;;;6.70;2.10;;;12.40;99.90;;;;;;5054160;28;20036;-44
2023/04/12 00:04:54;;;;;;;4.50;1.85;;;12.40;99.90;;;;;;5054265;28;20039;-44
2023/04/12 00:07:23;;;;;;;3.28;1.70;;;12.40;99.90;;;;;;5053545;28;20075;-44
2023/04/12 00:09:50;;;;;;;3.35;1.45;;;12.30;99.90;;;;;;5054287;28;20032;-44
2023/04/12 00:12:18;;;;;;;3.10;1.73;;;12.40;99.90;;;;;;5054622;28;20025;-46
2023/04/12 00:14:45;;;;;;;4.72;1.85;;;12.40;99.90;;;;;;5054040;28;20025;-43
2023/04/12 00:17:11;;;;;;;4.68;1.40;;;12.40;99.90;;;;;;5054188;28;20021;-45
2023/04/12 00:19:40;;;;;;;4.22;1.63;;;12.40;99.90;;;;;;5054374;28;20067;-46
2023/04/12 00:22:07;;;;;;;2.58;1.30;;;12.40;99.90;;;;;;5053957;28;20465;-43
2023/04/12 00:24:33;;;;;;;3.38;1.52;;;12.40;99.90;;;;;;5055304;28;20395;-45
2023/04/12 00:27:00;;;;;;;4.32;1.60;;;12.40;99.90;;;;;;5054440;28;20028;-42
2023/04/12 00:29:27;;;;;;;3.50;1.80;;;12.40;99.90;;;;;;5054582;28;20025;-43
2023/04/12 00:31:52;;;;;;;3.83;1.70;;;12.30;99.90;;;;;;5054856;28;20026;-44
2023/04/12 00:34:18;;;;;;;3.45;1.80;;;12.40;99.90;;;;;;5054184;28;20036;-44
2023/04/12 00:36:43;;;;;;;5.43;1.90;;;12.40;99.90;;;;;;5053584;28;20021;-44
2023/04/12 00:39:09;;;;;;;3.40;1.30;;;12.40;99.90;;;;;;5054307;28;20111;-44
2023/04/12 00:41:37;;;;;;;4.00;1.60;;;12.40;99.90;;;;;;5054666;28;20032;-43
2023/04/12 00:44:03;;;;;;;3.67;1.60;;;12.40;99.90;;;;;;5054859;28;20087;-43
2023/04/12 00:46:29;;;;;;;2.90;1.48;;;12.40;99.90;;;;;;5053656;28;20426;-43
2023/04/12 00:48:56;;;;;;;6.10;1.63;;;12.40;99.90;;;;;;5053703;28;20035;-44
2023/04/12 00:51:24;;;;;;;3.97;1.73;;;12.40;99.90;;;;;;5054363;28;20029;-43
2023/04/12 00:53:52;;;;;;;3.25;1.55;;;12.40;99.90;;;;;;5054265;28;20052;-42
2023/04/12 00:56:18;;;;;;;3.70;1.50;;;12.30;99.90;;;;;;5054002;28;20025;-43
2023/04/12 00:58:49;;;;;;;5.20;1.85;;;12.40;99.90;;;;;;5054328;28;20117;-44
2023/04/12 01:01:16;;;;;;;3.00;1.35;;;12.40;99.90;;;;;;5054053;28;20025;-44
2023/04/12 01:03:42;;;;;;;4.93;1.83;;;12.40;99.90;;;;;;5053582;28;20421;-45
2023/04/12 01:06:40;;;;;;;4.07;1.60;;;12.40;99.90;;;;;;5053491;28;20075;-43
2023/04/12 01:09:11;;;;;;;3.60;1.50;;;12.40;99.90;;;;;;5052804;28;20412;-43
2023/04/12 01:12:14;;;;;;;3.42;1.50;;;12.40;99.90;;;;;;5053425;28;20511;-44
2023/04/12 01:15:01;;;;;;;2.83;1.38;;;12.40;99.90;;;;;;5053090;28;20032;-44
2023/04/12 01:17:36;;;;;;;3.50;1.20;;;12.40;99.90;;;;;;5052621;28;20029;-44
2023/04/12 01:20:15;;;;;;;4.80;1.55;;;12.30;99.90;;;;;;5053477;28;20067;-44
2023/04/12 01:23:13;;;;;;;3.42;1.38;;;12.30;99.90;;;;;;5053083;28;20498;-45
2023/04/12 01:26:08;;;;;;;2.17;1.30;;;12.30;99.90;;;;;;5054278;28;20040;-44
2023/04/12 01:28:37;;;;;;;3.60;1.52;;;12.30;99.90;;;;;;5049790;28;20029;-43
2023/04/12 01:31:05;;;;;;;3.78;1.50;;;12.30;99.90;;;;;;5053068;28;20521;-43
2023/04/12 01:33:35;;;;;;;2.70;1.40;;;12.30;99.90;;;;;;5053489;28;20397;-44
2023/04/12 01:36:04;;;;;;;2.72;1.52;;;12.30;99.90;;;;;;5052613;28;20028;-42
2023/04/12 01:38:32;;;;;;;3.20;1.70;;;12.30;99.90;;;;;;5052998;28;20033;-43
2023/04/12 01:40:59;;;;;;;3.97;1.48;;;12.30;99.90;;;;;;5053429;28;20033;-43
2023/04/12 01:43:24;;;;;;;3.58;1.35;;;12.30;99.90;;;;;;5052793;28;20159;-44
2023/04/12 01:45:50;;;;;;;3.25;1.40;;;12.30;99.90;;;;;;5052444;28;20107;-44
2023/04/12 01:48:17;;;;;;;3.35;1.38;;;12.30;99.90;;;;;;5052827;28;20047;-43
2023/04/12 01:50:59;;;;;;;2.03;1.27;;;12.30;99.90;;;;;;5052704;28;20059;-44
2023/04/12 01:53:50;;;;;;;3.15;1.42;;;12.30;99.90;;;;;;5053448;28;20052;-46
2023/04/12 01:56:19;;;;;;;3.10;1.40;;;12.30;99.90;;;;;;5053027;28;20348;-43
2023/04/12 01:58:47;;;;;;;4.93;1.40;;;12.30;99.90;;;;;;5054004;28;20025;-43
2023/04/12 02:01:14;;;;;;;3.42;1.38;;;12.30;99.90;;;;;;5053574;28;20032;-44
2023/04/12 02:03:41;;;;;;;2.15;1.23;;;12.30;99.90;;;;;;5052501;28;20091;-43
2023/04/12 02:06:08;;;;;;;4.20;1.42;;;12.30;99.90;;;;;;5052133;28;20025;-44
2023/04/12 02:08:34;;;;;;;2.42;1.42;;;12.40;99.90;;;;;;5051781;28;20106;-43
2023/04/12 02:11:00;;;;;;;2.42;1.48;;;12.40;99.90;;;;;;5051694;28;20025;-44
2023/04/12 02:13:25;;;;;;;3.70;1.23;;;12.40;99.90;;;;;;5052170;28;20101;-42
2023/04/12 02:15:53;;;;;;;3.42;1.70;;;12.40;99.90;;;;;;5052469;28;20049;-43
2023/04/12 02:18:19;;;;;;;2.85;1.30;;;12.40;99.90;;;;;;5052056;28;20025;-42
2023/04/12 02:20:45;;;;;;;1.98;1.00;;;12.30;99.90;;;;;;5051548;28;20041;-44
2023/04/12 02:23:11;;;;;;;3.22;1.40;;;12.30;99.90;;;;;;5052756;28;20047;-43
2023/04/12 02:25:40;;;;;;;3.25;1.23;;;12.30;99.90;;;;;;5051610;28;20083;-44
2023/04/12 02:28:06;;;;;;;4.85;1.48;;;12.30;99.90;;;;;;5051536;28;20126;-43
2023/04/12 02:30:31;;;;;;;3.60;1.30;;;12.30;99.90;;;;;;5052357;28;20471;-46
2023/04/12 02:32:57;;;;;;;2.58;1.17;;;12.30;99.90;;;;;;5052052;28;20029;-44
2023/04/12 02:35:23;;;;;;;2.30;1.13;;;12.30;99.90;;;;;;5052075;28;20033;-42
2023/04/12 02:37:50;;;;;;;3.70;1.23;;;12.40;99.90;;;;;;5051916;28;20013;-44
2023/04/12 02:40:16;;;;;;;3.50;1.30;;;12.30;99.90;;;;;;5052170;28;20035;-45
2023/04/12 02:42:42;;;;;;;2.50;1.10;;;12.40;99.90;;;;;;5051257;28;20021;-44
2023/04/12 02:45:09;;;;;;;3.42;1.50;;;12.40;99.90;;;;;;5051889;28;20512;-42
2023/04/12 02:47:36;;;;;;;2.65;1.40;;;12.30;99.90;;;;;;5050646;28;20032;-45
2023/04/12 02:50:03;;;;;;;2.67;1.38;;;12.30;99.90;;;;;;5051903;28;20053;-44
2023/04/12 02:52:28;;;;;;;2.85;1.20;;;12.30;99.90;;;;;;5051734;28;20021;-42
2023/04/12 02:54:55;;;;;;;2.38;1.20;;;12.30;99.90;;;;;;5051279;28;20021;-44
2023/04/12 02:57:22;;;;;;;4.97;1.40;;;12.40;99.90;;;;;;5051368;28;20502;-43
2023/04/12 02:59:51;;;;;;;3.00;1.55;;;12.30;99.90;;;;;;5051092;28;20032;-44
2023/04/12 03:02:21;;;;;;;4.95;1.50;;;12.30;99.90;;;;;;5050690;28;20028;-44
2023/04/12 03:04:49;;;;;;;2.55;1.15;;;12.30;99.90;;;;;;5051985;28;20031;-43
2023/04/12 03:07:19;;;;;;;3.33;1.20;;;12.30;99.90;;;;;;5051567;28;20043;-43
2023/04/12 03:09:46;;;;;;;2.38;1.20;;;12.30;99.90;;;;;;5051698;28;20033;-45
2023/04/12 03:12:13;;;;;;;3.83;1.50;;;12.30;99.90;;;;;;5051952;28;20021;-44
2023/04/12 03:14:39;;;;;;;2.55;1.30;;;12.30;99.90;;;;;;5051676;28;20106;-45
2023/04/12 03:17:04;;;;;;;3.80;1.10;;;12.30;99.90;;;;;;5052202;28;20115;-42
2023/04/12 03:19:31;;;;;;;3.55;1.33;;;12.40;99.90;;;;;;5051124;28;20501;-44
2023/04/12 03:21:58;;;;;;;3.65;1.35;;;12.30;99.90;;;;;;5050828;28;20033;-46
2023/04/12 03:24:24;;;;;;;4.05;1.40;;;12.40;99.90;;;;;;5050628;28;20024;-44
2023/04/12 03:26:51;;;;;;;2.30;1.27;;;12.40;99.90;;;;;;5052455;28;20075;-42
2023/04/12 03:29:17;;;;;;;5.20;1.23;;;12.40;99.90;;;;;;5052425;28;20475;-45
2023/04/12 03:31:42;;;;;;;3.33;1.27;;;12.30;99.90;;;;;;5054001;28;20082;-44
2023/04/12 03:34:08;;;;;;;2.28;1.17;;;12.30;99.90;;;;;;5056274;28;20017;-44
2023/04/12 03:36:34;;;;;;;2.83;1.10;;;12.30;99.90;;;;;;5055576;28;20434;-42
2023/04/12 03:38:59;;;;;;;2.58;1.02;;;12.40;99.90;;;;;;5056336;28;20032;-43
2023/04/12 03:41:27;;;;;;;2.58;1.05;;;12.30;99.90;;;;;;5055534;28;20491;-46
2023/04/12 03:43:52;;;;;;;3.38;1.10;;;12.40;99.90;;;;;;5055775;28;20021;-44
2023/04/12 03:46:18;;;;;;;3.10;1.38;;;12.40;99.90;;;;;;5055008;28;20521;-44
2023/04/12 03:48:44;;;;;;;3.08;1.25;;;12.30;99.90;;;;;;5054511;28;20159;-43
2023/04/12 03:51:11;;;;;;;2.95;1.00;;;12.30;99.90;;;;;;5055684;28;20442;-43
2023/04/12 03:53:39;;;;;;;2.67;1.10;;;12.30;99.90;;;;;;5054726;28;20479;-44
2023/04/12 03:56:05;;;;;;;2.25;1.20;;;12.40;99.90;;;;;;5055071;28;20017;-44
2023/04/12 03:58:32;;;;;;;2.25;1.00;;;12.40;99.90;;;;;;5055617;28;20074;-44
2023/04/12 04:01:01;;;;;;;1.90;1.15;;;12.30;99.90;;;;;;5056230;28;20071;-44
2023/04/12 04:03:28;;;;;;;1.80;1.33;;;12.40;99.90;;;;;;5054510;28;20032;-44
2023/04/12 04:05:54;;;;;;;2.03;1.10;;;12.40;99.90;;;;;;5053638;28;20021;-43
2023/04/12 04:08:20;;;;;;;2.88;1.00;;;12.30;99.90;;;;;;5056229;28;20105;-45
2023/04/12 04:10:46;;;;;;;2.22;1.00;;;12.30;99.90;;;;;;5055515;28;20113;-45
2023/04/12 04:13:11;;;;;;;2.97;1.20;;;12.30;99.90;;;;;;5055730;28;20032;-45
2023/04/12 04:15:37;;;;;;;3.85;1.23;;;12.30;99.90;;;;;;5055517;28;20017;-43
2023/04/12 04:18:03;;;;;;;2.30;0.98;;;12.30;99.90;;;;;;5053498;28;20090;-43
2023/04/12 04:20:28;;;;;;;2.55;1.00;;;12.30;99.90;;;;;;5053827;28;20425;-46
2023/04/12 04:22:54;;;;;;;2.22;1.20;;;12.30;99.90;;;;;;5054839;28;20029;-44
2023/04/12 04:25:20;;;;;;;1.67;0.98;;;12.30;99.90;;;;;;5054443;28;20028;-44
2023/04/12 04:27:46;;;;;;;1.95;1.23;;;12.30;99.90;;;;;;5054516;28;20057;-44
2023/04/12 04:30:14;;;;;;;3.08;1.15;;;12.30;99.90;;;;;;5055232;28;20122;-43
2023/04/12 04:32:40;;;;;;;3.63;0.93;;;12.30;99.90;;;;;;5053640;28;20028;-43
2023/04/12 04:35:06;;;;;;;3.13;1.27;;;12.20;99.90;;;;;;5054722;28;20532;-44
2023/04/12 04:37:34;;;;;;;3.58;1.42;;;12.30;99.90;;;;;;5054051;28;20052;-44
2023/04/12 04:40:07;;;;;;;1.20;0.80;;;12.30;99.90;;;;;;5054899;28;20025;-43
2023/04/12 04:42:33;;;;;;;2.92;1.20;;;12.30;99.90;;;;;;5054106;28;20029;-41
2023/04/12 04:45:02;;;;;;;1.75;1.00;;;12.30;99.90;;;;;;5054390;28;20387;-47
2023/04/12 04:47:29;;;;;;;3.70;1.10;;;12.20;99.90;;;;;;5054582;28;20025;-48
2023/04/12 04:49:56;;;;;;;5.00;1.58;;;12.10;99.90;;;;;;5053790;28;20079;-45
2023/04/12 04:52:22;;;;;;;2.58;0.93;;;12.00;99.90;;;;;;5055423;28;20099;-47
2023/04/12 04:54:48;;;;;;;2.90;1.33;;;12.00;99.90;;;;;;5054625;28;20025;-44
2023/04/12 04:57:14;;;;;;;2.67;0.90;;;12.00;99.90;;;;;;5053980;28;20025;-48
2023/04/12 04:59:40;;;;;;;6.10;1.20;;;12.00;99.90;;;;;;5053305;28;20483;-45
2023/04/12 05:02:06;;;;;;;5.72;1.50;;;12.00;99.90;;;;;;5053716;28;20041;-45
2023/04/12 05:04:31;;;;;;;4.47;1.20;;;12.00;99.90;;;;;;5055008;28;20107;-48
2023/04/12 05:06:57;;;;;;;4.90;1.25;;;12.00;99.90;;;;;;5053975;28;20091;-47
2023/04/12 05:09:23;;;;;;;2.63;1.10;;;12.00;99.90;;;;;;5052792;28;20123;-45
2023/04/12 05:11:49;;;;;;;1.92;1.10;;;12.00;99.90;;;;;;5053339;28;20112;-44
2023/04/12 05:14:15;;;;;;;4.10;1.00;;;11.90;99.90;;;;;;5052783;28;20104;-47
2023/04/12 05:16:40;;;;;;;2.35;1.10;;;12.00;99.90;;;;;;5054787;28;20021;-45
2023/04/12 05:19:06;;;;;;;2.90;1.33;;;11.90;99.90;;;;;;5054749;28;20021;-45
2023/04/12 05:21:33;;;;;;;1.60;1.05;;;12.00;99.90;;;;;;5053546;28;20035;-45
2023/04/12 05:23:59;;;;;;;3.72;1.40;;;12.00;99.90;;;;;;5053359;28;20039;-45
2023/04/12 05:26:26;;;;;;;4.18;1.20;;;11.90;99.90;;;;;;5052621;28;20104;-46
2023/04/12 05:28:52;;;;;;;2.97;0.93;;;11.90;99.90;;;;;;5054653;28;20063;-44
2023/04/12 05:31:17;;;;;;;1.85;1.00;;;12.00;99.90;;;;;;5054028;28;20029;-47
2023/04/12 05:33:48;;;;;;;2.58;1.10;;;11.90;99.90;;;;;;5053309;28;20021;-44
2023/04/12 05:36:13;;;;;;;4.85;1.30;;;12.00;99.90;;;;;;5052452;28;20475;-45
2023/04/12 05:38:39;;;;;;;3.22;1.13;;;12.00;99.90;;;;;;5052606;28;20116;-46
2023/04/12 05:41:05;;;;;;;2.42;1.20;;;12.00;99.90;;;;;;5054429;28;20029;-45
2023/04/12 05:43:31;;;;;;;3.63;1.38;;;12.00;99.90;;;;;;5053204;28;20025;-44
2023/04/12 05:45:58;;;;;;;4.70;1.10;;;12.00;99.90;;;;;;5051705;28;20030;-45
2023/04/12 05:48:23;;;;;;;3.25;1.08;;;12.00;99.90;;;;;;5051918;28;20103;-45
2023/04/12 05:50:50;;;;;;;2.80;0.95;;;12.00;99.90;;;;;;5052053;28;20099;-47
2023/04/12 05:53:16;;;;;;;3.40;1.00;;;12.00;99.90;;;;;;5051984;28;20032;-45
2023/04/12 05:55:42;;;;;;;1.67;0.90;;;12.00;99.90;;;;;;5050763;28;20029;-46
2023/04/12 05:58:08;;;;;;;2.97;1.23;;;12.00;99.90;;;;;;5051655;28;20123;-46
2023/04/12 06:00:34;;;;;;;1.83;0.98;;;12.00;99.90;;;;;;5051948;28;20475;-46
2023/04/12 06:03:00;;;;;;;2.75;1.10;;;12.00;99.90;;;;;;5052045;28;20495;-45
2023/04/12 06:05:25;;;;;;;2.88;1.10;;;12.00;99.90;;;;;;5051804;28;20025;-44
2023/04/12 06:07:51;;;;;;;1.88;0.90;;;12.00;99.90;;;;;;5051447;28;20331;-44
2023/04/12 06:10:17;;;;;;;2.92;1.00;;;12.00;99.90;;;;;;5051862;28;20036;-46
2023/04/12 06:12:43;;;;;;;2.33;1.00;;;12.00;99.90;;;;;;5051669;28;20139;-44
2023/04/12 06:15:09;;;;;;;1.73;0.90;;;12.00;99.90;;;;;;5051586;28;20025;-45
2023/04/12 06:17:35;;;;;;;2.45;1.17;;;12.00;99.90;;;;;;5051042;28;20021;-46
2023/04/12 06:20:08;;;;;;;3.45;0.93;;;12.00;99.90;;;;;;5051745;28;20029;-44
2023/04/12 06:22:35;;;;;;;1.92;0.82;;;12.00;99.90;;;;;;5052428;28;20531;-44
2023/04/12 06:25:01;;;;;;;1.95;0.73;;;12.00;99.90;;;;;;5051189;28;20025;-45
2023/04/12 06:27:27;;;;;;;4.88;1.25;;;12.00;99.90;;;;;;5051620;28;20037;-46
2023/04/12 06:29:52;;;;;;;10.35;1.50;;;12.00;99.90;;;;;;5053728;28;20032;-45
2023/04/12 06:32:18;;;;;;;2.70;1.08;;;11.90;99.90;;;;;;5052306;28;20094;-48
2023/04/12 06:34:43;;;;;;;2.13;1.00;;;11.90;99.90;;;;;;5053172;28;20502;-46
2023/04/12 06:37:09;;;;;;;3.30;1.33;;;11.90;99.90;;;;;;5052916;28;20029;-46
2023/04/12 06:39:35;;;;;;;3.33;1.60;;;11.90;99.90;;;;;;5052360;28;20025;-47
2023/04/12 06:42:01;;;;;;;3.40;1.58;;;11.90;99.90;;;;;;5052415;28;20085;-47
2023/04/12 06:44:27;;;;;;;3.20;1.35;;;11.90;99.90;;;;;;5052404;28;20025;-46
2023/04/12 06:46:53;;;;;;;2.88;1.30;;;11.90;99.90;;;;;;5052007;28;20036;-48
2023/04/12 06:49:18;;;;;;;3.70;1.42;;;11.90;99.90;;;;;;5052418;28;20040;-48
2023/04/12 06:51:44;;;;;;;3.30;1.30;;;11.90;99.90;;;;;;5051338;28;20025;-45
2023/04/12 06:54:10;;;;;;;2.63;1.20;;;11.90;99.90;;;;;;5051821;28;20025;-46
2023/04/12 06:56:38;;;;;;;3.30;1.45;;;11.90;99.90;;;;;;5053020;28;20060;-47
2023/04/12 06:59:04;;;;;;;2.78;1.40;;;11.90;99.90;;;;;;5053008;28;20502;-47
2023/04/12 07:01:29;;;;;;;9.15;1.50;;;11.90;99.90;;;;;;5051471;28;20108;-47
2023/04/12 07:03:55;;;;;;;3.05;1.63;;;12.00;99.90;;;;;;5052869;28;20607;-45
2023/04/12 07:06:21;;;;;;;4.85;1.40;;;12.00;99.90;;;;;;5051000;28;20037;-45
2023/04/12 07:08:47;;;;;;;2.97;1.30;;;12.00;99.90;;;;;;5052533;28;20059;-46
2023/04/12 07:11:12;;;;;;;2.83;1.55;;;12.00;99.90;;;;;;5053799;28;20436;-46
2023/04/12 07:13:38;;;;;;;2.80;1.40;;;12.00;99.90;;;;;;5051052;28;20422;-46
2023/04/12 07:16:04;;;;;;;2.42;1.30;;;12.00;99.90;;;;;;5050694;28;20029;-45
2023/04/12 07:18:30;;;;;;;2.75;1.33;;;11.90;99.90;;;;;;5052198;28;20033;-46
2023/04/12 07:20:57;;;;;;;2.22;1.20;;;12.00;99.90;;;;;;5052553;28;20047;-45
2023/04/12 07:23:24;;;;;;;2.75;1.30;;;12.00;99.90;;;;;;5052320;28;20402;-47
2023/04/12 07:25:50;;;;;;;3.22;1.48;;;12.00;99.90;;;;;;5051832;28;20025;-46
2023/04/12 07:28:16;;;;;;;2.38;1.25;;;12.00;99.90;;;;;;5051030;28;20093;-48
2023/04/12 07:30:42;;;;;;;1.55;1.15;;;12.00;99.90;;;;;;5051612;28;20104;-46
2023/04/12 07:33:07;;;;;;;2.47;1.10;;;12.00;99.90;;;;;;5050734;28;20021;-45
2023/04/12 07:35:33;;;;;;;1.65;1.10;;;12.00;99.90;;;;;;5051564;28;20383;-48
2023/04/12 07:38:00;;;;;;;1.80;1.00;;;12.00;99.90;;;;;;5051339;28;20028;-48
2023/04/12 07:40:26;;;;;;;2.58;1.30;;;12.00;99.90;;;;;;5051984;28;20031;-46
2023/04/12 07:42:52;;;;;;;1.55;1.00;;;12.00;99.90;;;;;;5051659;28;20025;-48
2023/04/12 07:45:19;;;;;;;3.63;0.93;;;12.00;99.90;;;;;;5050392;28;20036;-46
2023/04/12 07:47:45;;;;;;;2.67;1.17;;;12.00;99.90;;;;;;5050637;28;20032;-47
2023/04/12 07:50:11;;;;;;;1.73;1.05;;;12.10;99.90;;;;;;5051561;28;20033;-48
2023/04/12 07:52:36;;;;;;;3.63;1.00;;;12.00;99.90;;;;;;5051362;28;20112;-41
2023/04/12 07:55:02;;;;;;;1.60;1.02;;;12.10;99.90;;;;;;5050497;28;20029;-36
2023/04/12 07:57:28;;;;;;;2.75;1.10;;;12.10;99.90;;;;;;5050646;28;20029;-36
2023/04/12 07:59:53;;;;;;;1.88;1.30;;;12.10;99.90;;;;;;5050783;28;20032;-38
2023/04/12 08:02:25;;;;;;;2.13;1.05;;;12.10;99.90;;;;;;5051575;28;20056;-37
2023/04/12 08:04:54;;;;;;;3.83;1.40;;;12.10;99.90;;;;;;5050428;28;20032;-37
2023/04/12 08:07:21;;;;;;;2.00;1.13;;;12.10;99.90;;;;;;5051929;28;20029;-38
2023/04/12 08:09:47;;;;;;;2.40;1.30;;;12.10;99.90;;;;;;5052011;28;20037;-37
2023/04/12 08:12:14;;;;;;;1.67;1.10;;;12.10;99.90;;;;;;5052229;28;20032;-37
2023/04/12 08:14:39;;;;;;;2.20;1.17;;;12.10;99.90;;;;;;5051345;28;20029;-40
2023/04/12 08:17:05;;;;;;;2.25;1.00;;;12.10;99.90;;;;;;5052260;28;20051;-37
2023/04/12 08:19:31;;;;;;;1.33;1.00;;;12.10;99.90;;;;;;5054851;28;20036;-37
2023/04/12 08:21:57;;;;;;;2.53;1.30;;;12.10;99.90;;;;;;5055271;28;20352;-36
2023/04/12 08:24:22;;;;;;;2.22;1.25;;;12.10;99.90;;;;;;5054513;28;20024;-38
2023/04/12 08:26:50;;;;;;;2.25;1.10;;;12.10;99.90;;;;;;5054150;28;20426;-35
2023/04/12 08:29:15;;;;;;;1.52;1.00;;;12.10;99.90;;;;;;5054726;28;20021;-36
2023/04/12 08:31:41;;;;;;;1.52;0.88;;;12.10;99.90;;;;;;5054955;28;20072;-41
2023/04/12 08:34:06;;;;;;;1.88;1.30;;;12.10;99.90;;;;;;5054685;28;20022;-35
2023/04/12 08:36:32;;;;;;;1.65;1.05;;;12.20;99.90;;;;;;5053019;28;20024;-35
2023/04/12 08:38:59;;;;;;;1.77;1.02;;;12.20;99.90;;;;;;5056434;28;20028;-36
2023/04/12 08:41:25;;;;;;;1.63;1.02;;;12.10;99.90;;;;;;5053395;28;20059;-38
2023/04/12 08:43:51;;;;;;;1.90;1.10;;;12.20;99.90;;;;;;5053980;28;20027;-38
2023/04/12 08:46:17;;;;;;;2.47;1.25;;;12.10;99.90;;;;;;5054668;28;20021;-39
2023/04/12 08:48:45;;;;;;;2.22;1.20;;;12.20;99.90;;;;;;5054727;28;20021;-35
2023/04/12 08:51:14;;;;;;;2.05;0.80;;;12.20;99.90;;;;;;5053767;28;20025;-38
2023/04/12 08:53:40;;;;;;;2.00;1.20;;;12.10;99.90;;;;;;5054172;28;20095;-36
2023/04/12 08:56:10;;;;;;;2.00;1.00;;;12.20;99.90;;;;;;5054082;28;20434;-36
2023/04/12 08:58:39;;;;;;;2.05;1.20;;;12.10;99.90;;;;;;5055308;28;20101;-38
2023/04/12 09:01:10;;;;;;;1.83;1.17;;;12.20;99.90;;;;;;5054706;28;20036;-38
2023/04/12 09:03:35;;;;;;;2.70;1.10;;;12.20;99.90;;;;;;5054638;28;20032;-35
2023/04/12 09:06:02;;;;;;;1.35;0.90;;;12.20;99.90;;;;;;5054840;28;20098;-36
2023/04/12 09:08:27;;;;;;;2.22;1.00;;;12.20;99.90;;;;;;5054654;28;20029;-36
2023/04/12 09:10:53;;;;;;;1.25;1.08;;;12.10;99.90;;;;;;5054118;28;20386;-40
2023/04/12 09:13:34;;;;;;;2.47;1.00;;;12.20;99.90;;;;;;5054256;28;20024;-37
2023/04/12 09:16:00;;;;;;;1.67;1.02;;;12.10;99.90;;;;;;5052809;28;20142;-36
2023/04/12 09:18:29;;;;;;;1.35;0.70;;;12.20;99.90;;;;;;5053679;28;20104;-38
2023/04/12 09:21:08;;;;;;;1.55;1.02;;;12.20;99.90;;;;;;5053421;28;20025;-35
2023/04/12 09:23:36;;;;;;;1.40;0.82;;;12.20;99.90;;;;;;5051389;28;20029;-37
2023/04/12 09:26:02;;;;;;;1.38;0.98;;;12.20;99.90;;;;;;5053727;28;20032;-38
2023/04/12 09:28:29;;;;;;;1.45;1.15;;;12.10;99.90;;;;;;5052830;28;20021;-39
2023/04/12 09:30:57;;;;;;;2.08;0.80;;;12.20;99.90;;;;;;5053840;28;20021;-40
2023/04/12 09:33:36;;;;;;;1.60;1.00;;;12.20;99.90;;;;;;5052933;28;20032;-38
2023/04/12 09:36:04;;;;;;;1.80;0.95;;;12.20;99.90;;;;;;5052417;28;20446;-35
2023/04/12 09:38:30;;;;;;;1.55;0.90;;;12.10;99.90;;;;;;5053733;28;20115;-38
2023/04/12 09:40:56;;;;;;;1.58;0.85;;;12.20;99.90;;;;;;5053540;28;20112;-37
2023/04/12 09:43:36;;;;;;;1.60;1.10;;;12.20;99.90;;;;;;5052871;28;20021;-37
2023/04/12 09:46:12;;;;;;;1.60;1.00;;;12.10;99.90;;;;;;5052389;28;20028;-36
2023/04/12 09:48:39;;;;;;;1.77;1.13;;;12.20;99.90;;;;;;5051055;28;20490;-38
2023/04/12 09:51:08;;;;;;;2.45;1.10;;;12.20;99.90;;;;;;5052400;28;20040;-36
2023/04/12 09:53:39;;;;;;;0.82;0.80;;;12.20;99.90;;;;;;5053682;28;20131;-37
2023/04/12 09:56:08;;;;;;;1.80;1.00;;;12.20;99.90;;;;;;5052351;28;20033;-38
2023/04/12 09:58:36;;;;;;;1.95;1.10;;;12.20;99.90;;;;;;5051922;28;20330;-35
2023/04/12 10:01:03;;;;;;;1.65;1.10;;;12.10;99.90;;;;;;5053469;28;20074;-39
2023/04/12 10:03:29;;;;;;;2.42;1.23;;;12.10;99.90;;;;;;5052927;28;20026;-37
2023/04/12 10:05:54;;;;;;;2.03;1.00;;;12.10;99.90;;;;;;5051541;28;20110;-35
2023/04/12 10:08:22;;;;;;;2.67;0.98;;;12.20;99.90;;;;;;5052928;28;20459;-36
2023/04/12 10:10:48;;;;;;;1.80;1.17;;;12.20;99.90;;;;;;5051827;28;20490;-39
2023/04/12 10:13:16;;;;;;;2.55;1.05;;;12.20;99.90;;;;;;5051799;28;20029;-37
2023/04/12 10:15:44;;;;;;;1.70;1.10;;;12.20;99.90;;;;;;5052068;28;20021;-37
2023/04/12 10:18:10;;;;;;;2.25;1.00;;;12.20;99.90;;;;;;5052156;28;20032;-36
2023/04/12 10:20:40;;;;;;;1.60;0.88;;;12.20;99.90;;;;;;5052470;28;20033;-35
2023/04/12 10:23:07;;;;;;;2.35;1.02;;;12.30;99.90;;;;;;5051605;28;20116;-38
2023/04/12 10:25:33;;;;;;;1.77;0.98;;;12.20;99.90;;;;;;5051785;28;20043;-37
2023/04/12 10:28:14;;;;;;;1.27;0.90;;;12.20;99.90;;;;;;5050799;28;20021;-38
2023/04/12 10:30:40;;;;;;;1.52;0.90;;;12.30;99.90;;;;;;5051406;28;20052;-39
2023/04/12 10:33:08;;;;;;;3.47;1.20;;;12.30;99.90;;;;;;5051264;28;20033;-38
2023/04/12 10:35:55;;;;;;;1.48;0.90;;;12.30;99.90;;;;;;5051411;28;20025;-36
2023/04/12 10:38:23;;;;;;;3.10;0.85;;;12.30;99.90;;;;;;5052597;28;20032;-37
2023/04/12 10:41:12;;;;;;;2.08;1.10;;;12.30;99.90;;;;;;5050896;28;20487;-39
2023/04/12 10:43:38;;;;;;;3.97;1.10;;;12.30;99.90;;;;;;5050347;28;20078;-38
2023/04/12 10:46:05;;;;;;;1.45;0.80;;;12.30;99.90;;;;;;5051648;28;20490;-38
2023/04/12 10:48:31;;;;;;;3.42;1.23;;;12.30;99.90;;;;;;5052029;28;20028;-38
2023/04/12 10:51:22;;;;;;;3.33;0.98;;;12.30;99.90;;;;;;5052219;28;20021;-37
2023/04/12 10:53:49;;;;;;;1.75;0.98;;;12.30;99.90;;;;;;5052972;28;20104;-35
2023/04/12 10:56:30;;;;;;;2.65;1.02;;;12.30;99.90;;;;;;5051884;28;20024;-40
2023/04/12 10:59:00;;;;;;;3.38;1.23;;;12.30;99.90;;;;;;5052290;28;20036;-37
2023/04/12 11:01:27;;;;;;;2.40;0.98;;;12.40;99.90;;;;;;5050824;28;20033;-37
2023/04/12 11:04:15;;;;;;;1.48;0.95;;;12.30;99.90;;;;;;5051852;28;20045;-39
2023/04/12 11:06:52;;;;;;;2.17;1.02;;;12.40;99.90;;;;;;5051092;28;20079;-38
2023/04/12 11:09:33;;;;;;;3.55;1.35;;;12.40;99.90;;;;;;5050840;28;20079;-38
2023/04/12 11:12:05;;;;;;;2.65;1.02;;;12.30;99.90;;;;;;5051081;28;20021;-36
2023/04/12 11:14:33;;;;;;;2.17;1.17;;;12.40;99.90;;;;;;5052525;28;20032;-35
2023/04/12 11:17:07;;;;;;;1.98;1.08;;;12.30;99.90;;;;;;5051740;28;20021;-39
2023/04/12 11:19:37;;;;;;;2.00;1.00;;;12.30;99.90;;;;;;5051702;28;20051;-37
2023/04/12 11:22:05;;;;;;;3.58;1.20;;;12.40;99.90;;;;;;5050989;28;20142;-36
2023/04/12 11:24:30;;;;;;;3.13;1.10;;;12.40;99.90;;;;;;5052736;28;20022;-35
2023/04/12 11:26:58;;;;;;;3.00;1.13;;;12.40;99.90;;;;;;5050226;28;20031;-35
2023/04/12 11:29:24;;;;;;;2.80;0.90;;;12.40;99.90;;;;;;5051214;28;20040;-38
2023/04/12 11:31:51;;;;;;;2.05;1.17;;;12.40;99.90;;;;;;5051448;28;20021;-36
2023/04/12 11:34:18;;;;;;;2.55;1.17;;;12.40;99.90;;;;;;5049641;28;20076;-38
2023/04/12 11:36:53;;;;;;;2.53;1.30;;;12.40;99.90;;;;;;5051201;28;20382;-36
2023/04/12 11:39:20;;;;;;;2.00;1.00;;;12.40;99.90;;;;;;5052603;28;20029;-37
2023/04/12 11:41:49;;;;;;;2.83;1.23;;;12.40;99.90;;;;;;5051475;28;20024;-35
2023/04/12 11:44:20;;;;;;;1.48;1.05;;;12.40;99.90;;;;;;5050647;28;20025;-41
2023/04/12 11:46:46;;;;;;;2.13;0.93;;;12.40;99.90;;;;;;5050480;28;20036;-35
2023/04/12 11:49:16;;;;;;;2.60;1.17;;;12.40;99.90;;;;;;5052364;28;20096;-36
2023/04/12 11:51:42;;;;;;;4.05;0.98;;;12.50;99.90;;;;;;5051751;28;20021;-35
2023/04/12 11:54:10;;;;;;;2.03;1.10;;;12.40;99.90;;;;;;5053066;28;20430;-35
2023/04/12 11:56:36;;;;;;;2.17;1.10;;;12.50;99.90;;;;;;5054656;28;20035;-38
2023/04/12 11:59:02;;;;;;;2.97;1.30;;;12.50;99.90;;;;;;5055040;28;20544;-36
2023/04/12 12:01:28;;;;;;;1.40;1.00;;;12.50;99.90;;;;;;5055466;28;20025;-37
2023/04/12 12:03:54;;;;;;;2.85;1.20;;;12.50;99.90;;;;;;5055463;28;20407;-35
2023/04/12 12:06:22;;;;;;;2.08;0.93;;;12.50;99.90;;;;;;5055644;28;20033;-35
2023/04/12 12:08:52;;;;;;;1.35;0.90;;;12.50;99.90;;;;;;5055507;28;20028;-38
2023/04/12 12:11:22;;;;;;;3.08;1.17;;;12.50;99.90;;;;;;5054951;28;20025;-38
2023/04/12 12:13:55;;;;;;;1.75;0.90;;;12.50;99.90;;;;;;5056301;28;20057;-38
2023/04/12 12:16:28;;;;;;;1.63;1.02;;;12.50;99.90;;;;;;5054036;28;20024;-35
2023/04/12 12:18:55;;;;;;;3.25;1.25;;;12.50;99.90;;;;;;5055120;28;20029;-37
2023/04/12 12:21:20;;;;;;;2.58;1.10;;;12.50;99.90;;;;;;5055141;28;20036;-36
2023/04/12 12:23:47;;;;;;;3.55;1.23;;;12.50;99.90;;;;;;5055032;28;20029;-38
2023/04/12 12:26:21;;;;;;;1.67;0.90;;;12.50;99.90;;;;;;5053686;28;20039;-35
2023/04/12 12:28:54;;;;;;;3.13;0.90;;;12.50;99.90;;;;;;5054275;28;20021;-38
2023/04/12 12:31:25;;;;;;;1.83;0.85;;;12.50;99.90;;;;;;5054043;28;20031;-35
2023/04/12 12:33:58;;;;;;;2.28;1.00;;;12.50;99.90;;;;;;5055216;28;20390;-36
2023/04/12 12:36:31;;;;;;;2.33;1.08;;;12.50;99.90;;;;;;5053690;28;20104;-35
2023/04/12 12:39:09;;;;;;;2.00;1.08;;;12.50;99.90;;;;;;5054785;28;20031;-37
2023/04/12 12:41:35;;;;;;;1.92;0.90;;;12.50;99.90;;;;;;5055656;28;20021;-37
2023/04/12 12:44:01;;;;;;;3.33;0.90;;;12.50;99.90;;;;;;5053111;28;20395;-36
2023/04/12 12:46:27;;;;;;;1.63;0.77;;;12.50;99.90;;;;;;5053630;28;20119;-36
2023/04/12 12:48:53;;;;;;;1.58;0.90;;;12.50;99.90;;;;;;5053263;28;20068;-37
2023/04/12 12:51:19;;;;;;;1.42;0.90;;;12.60;99.90;;;;;;5053780;28;20029;-36